Time,TemperatureF,DewpointF,PressureIn,WindDirection,WindDirectionDegrees,WindSpeedMPH,WindSpeedGustMPH,Humidity,HourlyPrecipIn,Conditions,Clouds,dailyrainin,SoftwareType,DateUTC
2013-02-21 00:04:00,-8.0,-13.0,30.61,West,266,0.0,0.0,79,0.00,,,0.00,weatherlink.com 1.10,2013-02-21 06:04:00,
2013-02-21 00:19:00,-8.5,-13.0,30.61,West,266,0.0,0.0,80,0.00,,,0.00,weatherlink.com 1.10,2013-02-21 06:19:00,
2013-02-21 00:34:00,-8.6,-13.0,30.61,West,264,0.0,0.0,81,0.00,,,0.00,weatherlink.com 1.10,2013-02-21 06:34:00,
2013-02-21 00:49:00,-9.0,-14.0,30.61,West,264,0.0,0.0,80,0.00,,,0.00,weatherlink.com 1.10,2013-02-21 06:49:00,
2013-02-21 01:04:00,-8.2,-13.0,30.61,West,264,0.0,0.0,81,0.00,,,0.00,weatherlink.com 1.10,2013-02-21 07:04:00,
2013-02-21 01:19:00,-8.6,-13.0,30.61,West,264,0.0,0.0,80,0.00,,,0.00,weatherlink.com 1.10,2013-02-21 07:19:00,
2013-02-21 01:34:00,-7.9,-12.0,30.62,West,264,0.0,0.0,81,0.00,,,0.00,weatherlink.com 1.10,2013-02-21 07:34:00,
2013-02-21 01:49:00,-8.2,-13.0,30.62,West,264,0.0,0.0,80,0.00,,,0.00,weatherlink.com 1.10,2013-02-21 07:49:00,
2013-02-21 02:04:00,-8.8,-13.0,30.62,West,264,0.0,0.0,80,0.00,,,0.00,weatherlink.com 1.10,2013-02-21 08:04:00,
2013-02-21 02:19:00,-8.8,-13.0,30.61,West,264,0.0,0.0,80,0.00,,,0.00,weatherlink.com 1.10,2013-02-21 08:19:00,
2013-02-21 02:34:00,-9.6,-14.0,30.62,West,264,0.0,0.0,79,0.00,,,0.00,weatherlink.com 1.10,2013-02-21 08:34:00,
2013-02-21 02:50:00,-8.9,-14.0,30.62,West,264,0.0,0.0,80,0.00,,,0.00,weatherlink.com 1.10,2013-02-21 08:50:00,
2013-02-21 03:05:00,-7.8,-12.0,30.62,West,264,0.0,0.0,81,0.00,,,0.00,weatherlink.com 1.10,2013-02-21 09:05:00,
2013-02-21 03:20:00,-6.7,-11.0,30.62,WSW,257,0.0,0.0,81,0.00,,,0.00,weatherlink.com 1.10,2013-02-21 09:20:00,
2013-02-21 03:35:00,-6.5,-11.0,30.61,WSW,257,0.0,0.0,80,0.00,,,0.00,weatherlink.com 1.10,2013-02-21 09:35:00,
2013-02-21 03:50:00,-6.5,-11.0,30.61,WSW,257,0.0,0.0,80,0.00,,,0.00,weatherlink.com 1.10,2013-02-21 09:50:00,
2013-02-21 04:05:00,-6.4,-11.0,30.61,WSW,257,0.0,0.0,80,0.00,,,0.00,weatherlink.com 1.10,2013-02-21 10:05:00,
2013-02-21 04:20:00,-6.8,-11.0,30.61,SE,146,0.0,0.0,80,0.00,,,0.00,weatherlink.com 1.10,2013-02-21 10:20:00,
2013-02-21 04:35:00,-7.6,-12.0,30.61,ESE,119,0.0,0.0,80,0.00,,,0.00,weatherlink.com 1.10,2013-02-21 10:35:00,
2013-02-21 04:50:00,-6.8,-11.0,30.60,ESE,118,0.0,1.0,81,0.00,,,0.00,weatherlink.com 1.10,2013-02-21 10:50:00,
2013-02-21 05:05:00,-7.1,-12.0,30.59,ESE,117,0.0,0.0,80,0.00,,,0.00,weatherlink.com 1.10,2013-02-21 11:05:00,
2013-02-21 05:20:00,-7.0,-11.0,30.59,ESE,117,0.0,0.0,81,0.00,,,0.00,weatherlink.com 1.10,2013-02-21 11:20:00,
2013-02-21 05:35:00,-6.6,-11.0,30.58,ESE,117,0.0,0.0,81,0.00,,,0.00,weatherlink.com 1.10,2013-02-21 11:35:00,
2013-02-21 05:50:00,-6.4,-11.0,30.58,ESE,116,0.0,1.0,81,0.00,,,0.00,weatherlink.com 1.10,2013-02-21 11:50:00,
2013-02-21 06:05:00,-4.2,-8.0,30.58,ESE,116,0.0,1.0,82,0.00,,,0.00,weatherlink.com 1.10,2013-02-21 12:05:00,
2013-02-21 06:21:00,-5.5,-10.0,30.57,North,356,0.0,1.0,80,0.00,,,0.00,weatherlink.com 1.10,2013-02-21 12:21:00,
2013-02-21 06:36:00,-7.1,-12.0,30.56,NNW,333,0.0,0.0,80,0.00,,,0.00,weatherlink.com 1.10,2013-02-21 12:36:00,
2013-02-21 06:51:00,-7.3,-12.0,30.57,NNW,333,0.0,0.0,80,0.00,,,0.00,weatherlink.com 1.10,2013-02-21 12:51:00,
2013-02-21 07:06:00,-6.4,-11.0,30.57,NNW,331,0.0,1.0,81,0.00,,,0.00,weatherlink.com 1.10,2013-02-21 13:06:00,
2013-02-21 07:21:00,-6.1,-11.0,30.58,NW,318,0.0,1.0,81,0.00,,,0.00,weatherlink.com 1.10,2013-02-21 13:21:00,
2013-02-21 07:36:00,-7.1,-12.0,30.60,West,279,0.0,1.0,80,0.00,,,0.00,weatherlink.com 1.10,2013-02-21 13:36:00,
2013-02-21 07:51:00,-6.9,-11.0,30.61,West,276,0.0,0.0,81,0.00,,,0.00,weatherlink.com 1.10,2013-02-21 13:51:00,
2013-02-21 08:06:00,-6.5,-11.0,30.63,West,262,0.0,0.0,81,0.00,,,0.00,weatherlink.com 1.10,2013-02-21 14:06:00,
2013-02-21 08:21:00,-5.9,-10.0,30.64,West,260,0.0,1.0,81,0.00,,,0.00,weatherlink.com 1.10,2013-02-21 14:21:00,
2013-02-21 08:36:00,-5.1,-10.0,30.64,WSW,250,0.0,1.0,81,0.00,,,0.00,weatherlink.com 1.10,2013-02-21 14:36:00,
2013-02-21 08:51:00,-4.3,-9.0,30.63,WSW,250,0.0,0.0,81,0.00,,,0.00,weatherlink.com 1.10,2013-02-21 14:51:00,
2013-02-21 09:06:00,-3.4,-8.0,30.63,NNW,342,0.0,1.0,80,0.00,,,0.00,weatherlink.com 1.10,2013-02-21 15:06:00,
2013-02-21 09:21:00,-2.1,-7.0,30.62,North,358,0.0,1.0,80,0.00,,,0.00,weatherlink.com 1.10,2013-02-21 15:21:00,
2013-02-21 09:36:00,0.1,-5.0,30.60,North,358,0.0,1.0,78,0.00,,,0.00,weatherlink.com 1.10,2013-02-21 15:36:00,
2013-02-21 09:52:00,0.6,-6.0,30.59,NNW,345,0.0,1.0,75,0.00,,,0.00,weatherlink.com 1.10,2013-02-21 15:52:00,
2013-02-21 10:07:00,1.9,-4.0,30.58,NE,55,0.0,1.0,76,0.00,,,0.00,weatherlink.com 1.10,2013-02-21 16:07:00,
2013-02-21 10:22:00,3.6,-3.0,30.58,ENE,58,1.0,2.0,74,0.00,,,0.00,weatherlink.com 1.10,2013-02-21 16:22:00,
2013-02-21 10:37:00,3.5,-3.0,30.58,ENE,60,0.0,2.0,74,0.00,,,0.00,weatherlink.com 1.10,2013-02-21 16:37:00,
2013-02-21 10:52:00,5.9,-1.0,30.57,East,83,1.0,2.0,72,0.00,,,0.00,weatherlink.com 1.10,2013-02-21 16:52:00,
2013-02-21 11:07:00,6.5,-1.0,30.57,East,79,0.0,1.0,72,0.00,,,0.00,weatherlink.com 1.10,2013-02-21 17:07:00,
2013-02-21 11:22:00,7.6,0.0,30.58,East,80,0.0,1.0,71,0.00,,,0.00,weatherlink.com 1.10,2013-02-21 17:22:00,
2013-02-21 11:37:00,8.4,1.0,30.58,ENE,78,0.0,1.0,72,0.00,,,0.00,weatherlink.com 1.10,2013-02-21 17:37:00,
2013-02-21 11:52:00,10.1,3.0,30.58,ENE,70,0.0,1.0,72,0.00,,,0.00,weatherlink.com 1.10,2013-02-21 17:52:00,
2013-02-21 12:07:00,11.8,4.0,30.58,East,81,1.0,1.0,72,0.00,,,0.00,weatherlink.com 1.10,2013-02-21 18:07:00,
2013-02-21 12:22:00,14.7,7.0,30.57,ESE,108,1.0,3.0,70,0.00,,,0.00,weatherlink.com 1.10,2013-02-21 18:22:00,
2013-02-21 12:37:00,16.2,8.0,30.56,ESE,115,1.0,2.0,69,0.00,,,0.00,weatherlink.com 1.10,2013-02-21 18:37:00,
2013-02-21 12:52:00,17.2,8.0,30.55,East,94,1.0,2.0,68,0.00,,,0.00,weatherlink.com 1.10,2013-02-21 18:52:00,
2013-02-21 13:08:00,18.2,9.0,30.55,WSW,256,2.0,5.0,66,0.00,,,0.00,weatherlink.com 1.10,2013-02-21 19:08:00,
2013-02-21 13:23:00,13.6,4.0,30.55,West,275,1.0,3.0,66,0.00,,,0.00,weatherlink.com 1.10,2013-02-21 19:23:00,
2013-02-21 13:38:00,12.8,4.0,30.54,West,269,1.0,2.0,67,0.00,,,0.00,weatherlink.com 1.10,2013-02-21 19:38:00,
2013-02-21 13:53:00,12.9,4.0,30.54,West,264,1.0,2.0,68,0.00,,,0.00,weatherlink.com 1.10,2013-02-21 19:53:00,
2013-02-21 14:08:00,13.4,4.0,30.53,NW,319,0.0,2.0,67,0.00,,,0.00,weatherlink.com 1.10,2013-02-21 20:08:00,
2013-02-21 14:23:00,14.0,5.0,30.52,NNE,26,0.0,2.0,68,0.00,,,0.00,weatherlink.com 1.10,2013-02-21 20:23:00,
2013-02-21 14:38:00,14.7,6.0,30.52,NNW,335,1.0,2.0,67,0.00,,,0.00,weatherlink.com 1.10,2013-02-21 20:38:00,
2013-02-21 14:53:00,15.4,7.0,30.51,NNE,28,0.0,2.0,69,0.00,,,0.00,weatherlink.com 1.10,2013-02-21 20:53:00,
2013-02-21 15:08:00,15.5,7.0,30.50,NE,41,1.0,2.0,68,0.00,,,0.00,weatherlink.com 1.10,2013-02-21 21:08:00,
2013-02-21 15:23:00,15.9,7.0,30.50,NNE,25,0.0,3.0,67,0.00,,,0.00,weatherlink.com 1.10,2013-02-21 21:23:00,
2013-02-21 15:38:00,16.1,7.0,30.50,NNW,340,0.0,2.0,68,0.00,,,0.00,weatherlink.com 1.10,2013-02-21 21:38:00,
2013-02-21 15:53:00,16.2,8.0,30.49,NE,34,1.0,3.0,69,0.00,,,0.00,weatherlink.com 1.10,2013-02-21 21:53:00,
2013-02-21 16:08:00,16.4,8.0,30.49,NE,47,1.0,3.0,68,0.00,,,0.00,weatherlink.com 1.10,2013-02-21 22:08:00,
2013-02-21 16:23:00,16.4,8.0,30.48,NE,45,0.0,3.0,68,0.00,,,0.00,weatherlink.com 1.10,2013-02-21 22:23:00,
2013-02-21 16:39:00,16.4,8.0,30.48,North,352,0.0,2.0,70,0.00,,,0.00,weatherlink.com 1.10,2013-02-21 22:39:00,
2013-02-21 16:54:00,16.4,8.0,30.47,NE,43,1.0,2.0,70,0.00,,,0.00,weatherlink.com 1.10,2013-02-21 22:54:00,
2013-02-21 17:09:00,16.2,8.0,30.47,ENE,60,0.0,1.0,71,0.00,,,0.00,weatherlink.com 1.10,2013-02-21 23:09:00,
2013-02-21 17:24:00,15.0,8.0,30.47,East,81,0.0,1.0,73,0.00,,,0.00,weatherlink.com 1.10,2013-02-21 23:24:00,
2013-02-21 17:39:00,14.5,7.0,30.48,East,81,0.0,1.0,73,0.00,,,0.00,weatherlink.com 1.10,2013-02-21 23:39:00,
2013-02-21 17:54:00,13.8,7.0,30.48,East,81,0.0,1.0,74,0.00,,,0.00,weatherlink.com 1.10,2013-02-21 23:54:00,
2013-02-21 18:09:00,13.7,7.0,30.48,ENE,62,0.0,1.0,73,0.00,,,0.00,weatherlink.com 1.10,2013-02-22 00:09:00,
2013-02-21 18:24:00,13.6,6.0,30.48,NE,51,1.0,1.0,73,0.00,,,0.00,weatherlink.com 1.10,2013-02-22 00:24:00,
2013-02-21 18:39:00,13.9,6.0,30.47,NE,54,2.0,2.0,72,0.00,,,0.00,weatherlink.com 1.10,2013-02-22 00:39:00,
2013-02-21 18:54:00,14.1,6.0,30.46,NE,37,4.0,4.0,70,0.00,,,0.00,weatherlink.com 1.10,2013-02-22 00:54:00,
2013-02-21 19:09:00,13.9,5.0,30.46,NE,43,1.0,1.0,69,0.00,,,0.00,weatherlink.com 1.10,2013-02-22 01:09:00,
2013-02-21 19:24:00,14.1,5.0,30.45,NE,43,0.0,3.0,68,0.00,,,0.00,weatherlink.com 1.10,2013-02-22 01:24:00,
2013-02-21 19:39:00,12.9,5.0,30.45,NNW,340,0.0,1.0,69,0.00,,,0.00,weatherlink.com 1.10,2013-02-22 01:39:00,
2013-02-21 19:54:00,11.6,4.0,30.45,NE,37,0.0,1.0,72,0.00,,,0.00,weatherlink.com 1.10,2013-02-22 01:54:00,
2013-02-21 20:10:00,10.9,4.0,30.45,North,358,0.0,1.0,72,0.00,,,0.00,weatherlink.com 1.10,2013-02-22 02:10:00,
2013-02-21 20:25:00,10.3,3.0,30.44,North,353,0.0,1.0,73,0.00,,,0.00,weatherlink.com 1.10,2013-02-22 02:25:00,
2013-02-21 20:40:00,10.3,3.0,30.44,NNW,339,0.0,1.0,73,0.00,,,0.00,weatherlink.com 1.10,2013-02-22 02:40:00,
2013-02-21 20:55:00,10.4,3.0,30.43,NNW,335,0.0,1.0,72,0.00,,,0.00,weatherlink.com 1.10,2013-02-22 02:55:00,
2013-02-21 21:10:00,10.3,3.0,30.43,NNW,335,0.0,1.0,72,0.00,,,0.00,weatherlink.com 1.10,2013-02-22 03:10:00,
2013-02-21 21:25:00,10.4,3.0,30.42,NW,324,0.0,1.0,72,0.00,,,0.00,weatherlink.com 1.10,2013-02-22 03:25:00,
2013-02-21 21:40:00,10.0,3.0,30.42,NNW,340,0.0,1.0,74,0.00,,,0.00,weatherlink.com 1.10,2013-02-22 03:40:00,
2013-02-21 21:55:00,10.2,4.0,30.41,NNW,345,0.0,1.0,75,0.00,,,0.00,weatherlink.com 1.10,2013-02-22 03:55:00,
2013-02-21 22:10:00,10.1,4.0,30.40,NNW,345,1.0,1.0,75,0.00,,,0.00,weatherlink.com 1.10,2013-02-22 04:10:00,
2013-02-21 22:25:00,10.2,4.0,30.40,NNW,338,0.0,1.0,76,0.00,,,0.00,weatherlink.com 1.10,2013-02-22 04:25:00,
2013-02-21 22:40:00,10.0,4.0,30.39,NNW,335,0.0,1.0,76,0.00,,,0.00,weatherlink.com 1.10,2013-02-22 04:40:00,
2013-02-21 22:55:00,9.5,4.0,30.39,NW,326,0.0,1.0,77,0.00,,,0.00,weatherlink.com 1.10,2013-02-22 04:55:00,
2013-02-21 23:10:00,9.6,4.0,30.38,NNW,343,1.0,1.0,78,0.00,,,0.00,weatherlink.com 1.10,2013-02-22 05:10:00,
2013-02-21 23:25:00,10.1,5.0,30.37,NNW,345,0.0,1.0,78,0.00,,,0.00,weatherlink.com 1.10,2013-02-22 05:25:00,
2013-02-21 23:41:00,10.6,5.0,30.37,North,356,0.0,1.0,77,0.00,,,0.00,weatherlink.com 1.10,2013-02-22 05:41:00,
2013-02-21 23:56:00,10.6,5.0,30.36,NNW,345,0.0,1.0,77,0.00,,,0.00,weatherlink.com 1.10,2013-02-22 05:56:00,